sensor_id;sensor_type;location;lat;lon;timestamp;temperature;humidity
39601;DHT22;25297;44.758;11.310;2023-05-07T00:00:00;20.40;92.30
39601;DHT22;25297;44.758;11.310;2023-05-07T00:02:26;20.40;92.30
39601;DHT22;25297;44.758;11.310;2023-05-07T00:04:52;20.40;92.30
39601;DHT22;25297;44.758;11.310;2023-05-07T00:07:18;20.40;92.40
39601;DHT22;25297;44.758;11.310;2023-05-07T00:09:43;20.40;92.40
39601;DHT22;25297;44.758;11.310;2023-05-07T00:12:09;20.40;92.50
39601;DHT22;25297;44.758;11.310;2023-05-07T00:14:35;20.40;92.60
39601;DHT22;25297;44.758;11.310;2023-05-07T00:17:01;20.40;92.80
39601;DHT22;25297;44.758;11.310;2023-05-07T00:19:27;20.40;92.80
39601;DHT22;25297;44.758;11.310;2023-05-07T00:21:52;20.40;92.80
39601;DHT22;25297;44.758;11.310;2023-05-07T00:24:21;20.40;92.90
39601;DHT22;25297;44.758;11.310;2023-05-07T00:26:47;20.40;93.00
39601;DHT22;25297;44.758;11.310;2023-05-07T00:29:13;20.40;93.00
39601;DHT22;25297;44.758;11.310;2023-05-07T00:31:38;20.40;93.10
39601;DHT22;25297;44.758;11.310;2023-05-07T00:34:04;20.40;93.10
39601;DHT22;25297;44.758;11.310;2023-05-07T00:36:29;20.30;93.10
39601;DHT22;25297;44.758;11.310;2023-05-07T00:38:57;20.30;93.10
39601;DHT22;25297;44.758;11.310;2023-05-07T00:41:24;20.20;93.00
39601;DHT22;25297;44.758;11.310;2023-05-07T00:43:50;20.30;92.90
39601;DHT22;25297;44.758;11.310;2023-05-07T00:46:17;20.20;92.80
39601;DHT22;25297;44.758;11.310;2023-05-07T00:48:43;20.10;92.90
39601;DHT22;25297;44.758;11.310;2023-05-07T00:51:09;20.10;92.90
39601;DHT22;25297;44.758;11.310;2023-05-07T00:53:36;20.10;93.10
39601;DHT22;25297;44.758;11.310;2023-05-07T00:56:02;20.00;93.00
39601;DHT22;25297;44.758;11.310;2023-05-07T00:58:28;20.00;93.10
39601;DHT22;25297;44.758;11.310;2023-05-07T01:00:54;20.00;93.10
39601;DHT22;25297;44.758;11.310;2023-05-07T01:03:20;19.90;93.20
39601;DHT22;25297;44.758;11.310;2023-05-07T01:05:47;19.90;93.10
39601;DHT22;25297;44.758;11.310;2023-05-07T01:08:14;19.80;93.10
39601;DHT22;25297;44.758;11.310;2023-05-07T01:10:41;19.80;93.10
39601;DHT22;25297;44.758;11.310;2023-05-07T01:13:12;19.70;93.30
39601;DHT22;25297;44.758;11.310;2023-05-07T01:15:38;19.60;93.40
39601;DHT22;25297;44.758;11.310;2023-05-07T01:18:06;19.60;93.60
39601;DHT22;25297;44.758;11.310;2023-05-07T01:20:32;19.60;93.80
39601;DHT22;25297;44.758;11.310;2023-05-07T01:22:59;19.50;94.20
39601;DHT22;25297;44.758;11.310;2023-05-07T01:25:26;19.50;94.10
39601;DHT22;25297;44.758;11.310;2023-05-07T01:27:51;19.50;94.20
39601;DHT22;25297;44.758;11.310;2023-05-07T01:30:19;19.50;94.30
39601;DHT22;25297;44.758;11.310;2023-05-07T01:32:56;19.50;94.40
39601;DHT22;25297;44.758;11.310;2023-05-07T01:35:29;19.60;94.50
39601;DHT22;25297;44.758;11.310;2023-05-07T01:37:55;19.50;94.60
39601;DHT22;25297;44.758;11.310;2023-05-07T01:40:21;19.50;94.60
39601;DHT22;25297;44.758;11.310;2023-05-07T01:42:47;19.50;94.90
39601;DHT22;25297;44.758;11.310;2023-05-07T01:45:16;19.60;94.70
39601;DHT22;25297;44.758;11.310;2023-05-07T01:47:42;19.50;94.80
39601;DHT22;25297;44.758;11.310;2023-05-07T01:50:09;19.50;94.90
39601;DHT22;25297;44.758;11.310;2023-05-07T01:52:37;19.50;95.00
39601;DHT22;25297;44.758;11.310;2023-05-07T01:55:04;19.50;95.00
39601;DHT22;25297;44.758;11.310;2023-05-07T01:57:30;19.50;95.00
39601;DHT22;25297;44.758;11.310;2023-05-07T01:59:55;19.50;95.00
39601;DHT22;25297;44.758;11.310;2023-05-07T02:02:21;19.50;94.90
39601;DHT22;25297;44.758;11.310;2023-05-07T02:04:47;19.50;94.90
39601;DHT22;25297;44.758;11.310;2023-05-07T02:07:12;19.40;94.90
39601;DHT22;25297;44.758;11.310;2023-05-07T02:09:38;19.50;95.00
39601;DHT22;25297;44.758;11.310;2023-05-07T02:12:04;19.40;94.90
39601;DHT22;25297;44.758;11.310;2023-05-07T02:14:29;19.40;95.00
39601;DHT22;25297;44.758;11.310;2023-05-07T02:16:55;19.40;95.10
39601;DHT22;25297;44.758;11.310;2023-05-07T02:19:21;19.40;95.20
39601;DHT22;25297;44.758;11.310;2023-05-07T02:21:47;19.30;95.10
39601;DHT22;25297;44.758;11.310;2023-05-07T02:24:13;19.30;95.10
39601;DHT22;25297;44.758;11.310;2023-05-07T02:26:40;19.30;95.20
39601;DHT22;25297;44.758;11.310;2023-05-07T02:29:06;19.20;95.20
39601;DHT22;25297;44.758;11.310;2023-05-07T02:31:31;19.20;95.20
39601;DHT22;25297;44.758;11.310;2023-05-07T02:33:59;19.10;95.30
39601;DHT22;25297;44.758;11.310;2023-05-07T02:36:25;19.10;95.40
39601;DHT22;25297;44.758;11.310;2023-05-07T02:38:52;19.10;95.50
39601;DHT22;25297;44.758;11.310;2023-05-07T02:41:17;19.10;95.50
39601;DHT22;25297;44.758;11.310;2023-05-07T02:43:43;19.10;95.50
39601;DHT22;25297;44.758;11.310;2023-05-07T02:46:09;19.00;95.50
39601;DHT22;25297;44.758;11.310;2023-05-07T02:48:35;19.10;95.70
39601;DHT22;25297;44.758;11.310;2023-05-07T02:51:01;19.00;95.80
39601;DHT22;25297;44.758;11.310;2023-05-07T02:53:27;19.10;95.90
39601;DHT22;25297;44.758;11.310;2023-05-07T02:55:54;19.10;96.00
39601;DHT22;25297;44.758;11.310;2023-05-07T02:58:19;19.10;96.10
39601;DHT22;25297;44.758;11.310;2023-05-07T03:00:45;19.10;96.10
39601;DHT22;25297;44.758;11.310;2023-05-07T03:03:11;19.10;95.90
39601;DHT22;25297;44.758;11.310;2023-05-07T03:05:37;19.10;95.80
39601;DHT22;25297;44.758;11.310;2023-05-07T03:08:02;19.10;95.90
39601;DHT22;25297;44.758;11.310;2023-05-07T03:10:29;19.10;96.00
39601;DHT22;25297;44.758;11.310;2023-05-07T03:12:55;19.10;96.00
39601;DHT22;25297;44.758;11.310;2023-05-07T03:15:21;19.10;95.90
39601;DHT22;25297;44.758;11.310;2023-05-07T03:17:47;19.00;96.00
39601;DHT22;25297;44.758;11.310;2023-05-07T03:20:13;19.10;96.10
39601;DHT22;25297;44.758;11.310;2023-05-07T03:22:39;19.00;96.10
39601;DHT22;25297;44.758;11.310;2023-05-07T03:25:06;19.00;96.30
39601;DHT22;25297;44.758;11.310;2023-05-07T03:27:32;19.00;96.30
39601;DHT22;25297;44.758;11.310;2023-05-07T03:29:58;19.00;96.30
39601;DHT22;25297;44.758;11.310;2023-05-07T03:32:23;19.00;96.30
39601;DHT22;25297;44.758;11.310;2023-05-07T03:34:49;19.00;96.50
39601;DHT22;25297;44.758;11.310;2023-05-07T03:37:14;18.90;96.60
39601;DHT22;25297;44.758;11.310;2023-05-07T03:39:40;18.90;96.70
39601;DHT22;25297;44.758;11.310;2023-05-07T03:42:06;18.90;96.80
39601;DHT22;25297;44.758;11.310;2023-05-07T03:44:31;18.90;97.00
39601;DHT22;25297;44.758;11.310;2023-05-07T03:46:57;18.90;97.00
39601;DHT22;25297;44.758;11.310;2023-05-07T03:49:23;19.00;96.80
39601;DHT22;25297;44.758;11.310;2023-05-07T03:51:48;19.00;96.80
39601;DHT22;25297;44.758;11.310;2023-05-07T03:54:14;19.00;96.90
39601;DHT22;25297;44.758;11.310;2023-05-07T03:56:40;18.90;96.90
39601;DHT22;25297;44.758;11.310;2023-05-07T03:59:05;18.90;97.10
39601;DHT22;25297;44.758;11.310;2023-05-07T04:01:31;18.90;97.20
39601;DHT22;25297;44.758;11.310;2023-05-07T04:03:57;19.00;97.30
39601;DHT22;25297;44.758;11.310;2023-05-07T04:06:22;18.90;97.30
39601;DHT22;25297;44.758;11.310;2023-05-07T04:08:48;19.00;97.20
39601;DHT22;25297;44.758;11.310;2023-05-07T04:11:14;19.00;97.30
39601;DHT22;25297;44.758;11.310;2023-05-07T04:13:39;19.00;97.20
39601;DHT22;25297;44.758;11.310;2023-05-07T04:16:05;18.90;97.00
39601;DHT22;25297;44.758;11.310;2023-05-07T04:18:31;18.90;96.80
39601;DHT22;25297;44.758;11.310;2023-05-07T04:20:57;18.80;96.80
39601;DHT22;25297;44.758;11.310;2023-05-07T04:23:22;18.80;96.90
39601;DHT22;25297;44.758;11.310;2023-05-07T04:25:48;18.80;96.90
39601;DHT22;25297;44.758;11.310;2023-05-07T04:28:13;18.80;96.90
39601;DHT22;25297;44.758;11.310;2023-05-07T04:30:39;18.80;97.00
39601;DHT22;25297;44.758;11.310;2023-05-07T04:33:06;18.70;97.10
39601;DHT22;25297;44.758;11.310;2023-05-07T04:35:32;18.70;97.20
39601;DHT22;25297;44.758;11.310;2023-05-07T04:37:58;18.70;97.20
39601;DHT22;25297;44.758;11.310;2023-05-07T04:40:24;18.70;97.20
39601;DHT22;25297;44.758;11.310;2023-05-07T04:42:51;18.70;97.40
39601;DHT22;25297;44.758;11.310;2023-05-07T04:45:18;18.70;97.60
39601;DHT22;25297;44.758;11.310;2023-05-07T04:47:44;18.70;97.70
39601;DHT22;25297;44.758;11.310;2023-05-07T04:50:10;18.70;97.70
39601;DHT22;25297;44.758;11.310;2023-05-07T04:52:36;18.60;97.80
39601;DHT22;25297;44.758;11.310;2023-05-07T04:55:02;18.70;98.00
39601;DHT22;25297;44.758;11.310;2023-05-07T04:57:27;18.70;98.10
39601;DHT22;25297;44.758;11.310;2023-05-07T04:59:53;18.70;98.30
39601;DHT22;25297;44.758;11.310;2023-05-07T05:02:19;18.70;98.40
39601;DHT22;25297;44.758;11.310;2023-05-07T05:04:45;18.70;98.40
39601;DHT22;25297;44.758;11.310;2023-05-07T05:07:10;18.70;98.40
39601;DHT22;25297;44.758;11.310;2023-05-07T05:09:36;18.70;98.50
39601;DHT22;25297;44.758;11.310;2023-05-07T05:12:02;18.80;98.60
39601;DHT22;25297;44.758;11.310;2023-05-07T05:14:28;18.70;98.70
39601;DHT22;25297;44.758;11.310;2023-05-07T05:16:53;18.80;98.70
39601;DHT22;25297;44.758;11.310;2023-05-07T05:19:19;18.80;98.80
39601;DHT22;25297;44.758;11.310;2023-05-07T05:21:45;18.80;98.80
39601;DHT22;25297;44.758;11.310;2023-05-07T05:24:10;18.80;99.00
39601;DHT22;25297;44.758;11.310;2023-05-07T05:26:36;18.80;99.10
39601;DHT22;25297;44.758;11.310;2023-05-07T05:29:01;18.80;99.20
39601;DHT22;25297;44.758;11.310;2023-05-07T05:31:27;18.80;99.30
39601;DHT22;25297;44.758;11.310;2023-05-07T05:33:53;18.80;99.40
39601;DHT22;25297;44.758;11.310;2023-05-07T05:36:18;18.80;99.80
39601;DHT22;25297;44.758;11.310;2023-05-07T05:38:44;18.80;99.80
39601;DHT22;25297;44.758;11.310;2023-05-07T05:41:10;18.80;99.80
39601;DHT22;25297;44.758;11.310;2023-05-07T05:43:35;18.80;99.90
39601;DHT22;25297;44.758;11.310;2023-05-07T05:46:01;18.80;99.90
39601;DHT22;25297;44.758;11.310;2023-05-07T05:48:28;18.80;99.90
39601;DHT22;25297;44.758;11.310;2023-05-07T05:50:54;18.90;99.90
39601;DHT22;25297;44.758;11.310;2023-05-07T05:53:20;18.90;99.90
39601;DHT22;25297;44.758;11.310;2023-05-07T05:55:45;19.00;99.90
39601;DHT22;25297;44.758;11.310;2023-05-07T05:58:11;19.00;99.90
39601;DHT22;25297;44.758;11.310;2023-05-07T06:00:37;19.00;99.90
39601;DHT22;25297;44.758;11.310;2023-05-07T06:03:03;19.10;99.90
39601;DHT22;25297;44.758;11.310;2023-05-07T06:05:28;19.10;99.90
39601;DHT22;25297;44.758;11.310;2023-05-07T06:07:54;19.20;99.90
39601;DHT22;25297;44.758;11.310;2023-05-07T06:10:20;19.20;99.90
39601;DHT22;25297;44.758;11.310;2023-05-07T06:12:46;19.30;99.90
39601;DHT22;25297;44.758;11.310;2023-05-07T06:15:11;19.30;99.90
39601;DHT22;25297;44.758;11.310;2023-05-07T06:17:37;19.40;99.90
39601;DHT22;25297;44.758;11.310;2023-05-07T06:20:03;19.40;99.90
39601;DHT22;25297;44.758;11.310;2023-05-07T06:22:29;19.50;99.90
39601;DHT22;25297;44.758;11.310;2023-05-07T06:24:54;19.50;99.90
39601;DHT22;25297;44.758;11.310;2023-05-07T06:27:20;19.50;99.90
39601;DHT22;25297;44.758;11.310;2023-05-07T06:29:47;19.60;99.90
39601;DHT22;25297;44.758;11.310;2023-05-07T06:32:14;19.70;99.90
39601;DHT22;25297;44.758;11.310;2023-05-07T06:34:40;19.70;99.90
39601;DHT22;25297;44.758;11.310;2023-05-07T06:37:06;19.70;99.90
39601;DHT22;25297;44.758;11.310;2023-05-07T06:39:33;19.80;99.90
39601;DHT22;25297;44.758;11.310;2023-05-07T06:42:00;19.80;99.90
39601;DHT22;25297;44.758;11.310;2023-05-07T06:44:25;19.80;99.90
39601;DHT22;25297;44.758;11.310;2023-05-07T06:46:51;19.90;99.90
39601;DHT22;25297;44.758;11.310;2023-05-07T06:49:16;20.00;99.90
39601;DHT22;25297;44.758;11.310;2023-05-07T06:51:42;20.00;99.90
39601;DHT22;25297;44.758;11.310;2023-05-07T06:54:08;20.00;99.90
39601;DHT22;25297;44.758;11.310;2023-05-07T06:56:34;20.10;99.90
39601;DHT22;25297;44.758;11.310;2023-05-07T06:59:00;20.10;99.90
39601;DHT22;25297;44.758;11.310;2023-05-07T07:01:26;20.20;99.90
39601;DHT22;25297;44.758;11.310;2023-05-07T07:03:51;20.20;99.90
39601;DHT22;25297;44.758;11.310;2023-05-07T07:06:17;20.00;99.90
39601;DHT22;25297;44.758;11.310;2023-05-07T07:08:43;20.30;99.90
39601;DHT22;25297;44.758;11.310;2023-05-07T07:11:09;20.30;99.90
39601;DHT22;25297;44.758;11.310;2023-05-07T07:13:35;20.40;99.90
39601;DHT22;25297;44.758;11.310;2023-05-07T07:16:01;20.40;99.90
39601;DHT22;25297;44.758;11.310;2023-05-07T07:18:27;20.50;99.90
39601;DHT22;25297;44.758;11.310;2023-05-07T07:20:52;20.50;99.90
39601;DHT22;25297;44.758;11.310;2023-05-07T07:23:18;20.50;99.90
39601;DHT22;25297;44.758;11.310;2023-05-07T07:25:44;20.60;99.90
39601;DHT22;25297;44.758;11.310;2023-05-07T07:28:10;20.60;99.90
39601;DHT22;25297;44.758;11.310;2023-05-07T07:30:36;20.70;99.90
39601;DHT22;25297;44.758;11.310;2023-05-07T07:33:02;20.70;99.90
39601;DHT22;25297;44.758;11.310;2023-05-07T07:35:29;20.70;99.90
39601;DHT22;25297;44.758;11.310;2023-05-07T07:37:55;20.80;99.90
39601;DHT22;25297;44.758;11.310;2023-05-07T07:40:21;20.80;99.90
39601;DHT22;25297;44.758;11.310;2023-05-07T07:42:47;20.80;99.90
39601;DHT22;25297;44.758;11.310;2023-05-07T07:45:12;20.90;99.90
39601;DHT22;25297;44.758;11.310;2023-05-07T07:47:39;20.90;99.90
39601;DHT22;25297;44.758;11.310;2023-05-07T07:50:06;20.90;99.90
39601;DHT22;25297;44.758;11.310;2023-05-07T07:52:31;21.00;99.90
39601;DHT22;25297;44.758;11.310;2023-05-07T07:54:57;21.00;99.90
39601;DHT22;25297;44.758;11.310;2023-05-07T07:57:23;21.00;99.90
39601;DHT22;25297;44.758;11.310;2023-05-07T07:59:49;21.10;99.90
39601;DHT22;25297;44.758;11.310;2023-05-07T08:02:15;21.10;99.90
39601;DHT22;25297;44.758;11.310;2023-05-07T08:04:41;21.20;99.90
39601;DHT22;25297;44.758;11.310;2023-05-07T08:07:09;21.20;99.90
39601;DHT22;25297;44.758;11.310;2023-05-07T08:09:34;21.20;99.90
39601;DHT22;25297;44.758;11.310;2023-05-07T08:12:00;21.20;99.90
39601;DHT22;25297;44.758;11.310;2023-05-07T08:14:26;21.30;99.90
39601;DHT22;25297;44.758;11.310;2023-05-07T08:16:54;21.30;99.90
39601;DHT22;25297;44.758;11.310;2023-05-07T08:19:19;21.30;99.90
39601;DHT22;25297;44.758;11.310;2023-05-07T08:21:45;21.40;99.90
39601;DHT22;25297;44.758;11.310;2023-05-07T08:24:13;21.40;99.90
39601;DHT22;25297;44.758;11.310;2023-05-07T08:26:39;21.40;99.90
39601;DHT22;25297;44.758;11.310;2023-05-07T08:29:05;21.50;99.90
39601;DHT22;25297;44.758;11.310;2023-05-07T08:31:31;21.30;99.90
39601;DHT22;25297;44.758;11.310;2023-05-07T08:33:57;21.50;99.90
39601;DHT22;25297;44.758;11.310;2023-05-07T08:36:23;21.50;99.40
39601;DHT22;25297;44.758;11.310;2023-05-07T08:38:49;21.60;99.40
39601;DHT22;25297;44.758;11.310;2023-05-07T08:41:15;21.60;99.60
39601;DHT22;25297;44.758;11.310;2023-05-07T08:43:41;21.60;99.90
39601;DHT22;25297;44.758;11.310;2023-05-07T08:46:10;21.70;99.90
39601;DHT22;25297;44.758;11.310;2023-05-07T08:48:37;21.70;99.90
39601;DHT22;25297;44.758;11.310;2023-05-07T08:51:03;21.70;99.70
39601;DHT22;25297;44.758;11.310;2023-05-07T08:53:29;21.80;99.20
39601;DHT22;25297;44.758;11.310;2023-05-07T08:55:55;21.80;99.60
39601;DHT22;25297;44.758;11.310;2023-05-07T08:58:20;21.80;98.80
39601;DHT22;25297;44.758;11.310;2023-05-07T09:00:47;21.90;98.90
39601;DHT22;25297;44.758;11.310;2023-05-07T09:03:12;21.90;99.50
39601;DHT22;25297;44.758;11.310;2023-05-07T09:05:39;21.90;99.20
39601;DHT22;25297;44.758;11.310;2023-05-07T09:08:06;22.00;99.00
39601;DHT22;25297;44.758;11.310;2023-05-07T09:10:33;22.00;99.00
39601;DHT22;25297;44.758;11.310;2023-05-07T09:12:59;22.10;99.90
39601;DHT22;25297;44.758;11.310;2023-05-07T09:15:26;22.10;99.90
39601;DHT22;25297;44.758;11.310;2023-05-07T09:17:52;22.10;99.70
39601;DHT22;25297;44.758;11.310;2023-05-07T09:20:18;22.20;99.90
39601;DHT22;25297;44.758;11.310;2023-05-07T09:22:43;22.20;99.40
39601;DHT22;25297;44.758;11.310;2023-05-07T09:25:09;22.20;99.40
39601;DHT22;25297;44.758;11.310;2023-05-07T09:27:35;22.30;98.80
39601;DHT22;25297;44.758;11.310;2023-05-07T09:30:05;22.30;98.60
39601;DHT22;25297;44.758;11.310;2023-05-07T09:32:35;22.30;98.80
39601;DHT22;25297;44.758;11.310;2023-05-07T09:35:03;22.30;99.10
39601;DHT22;25297;44.758;11.310;2023-05-07T09:37:31;22.40;99.40
39601;DHT22;25297;44.758;11.310;2023-05-07T09:39:57;22.50;99.00
39601;DHT22;25297;44.758;11.310;2023-05-07T09:42:24;22.50;98.30
39601;DHT22;25297;44.758;11.310;2023-05-07T09:44:51;22.60;98.00
39601;DHT22;25297;44.758;11.310;2023-05-07T09:47:19;22.50;97.20
39601;DHT22;25297;44.758;11.310;2023-05-07T09:49:48;22.60;97.00
39601;DHT22;25297;44.758;11.310;2023-05-07T09:52:14;22.60;97.10
39601;DHT22;25297;44.758;11.310;2023-05-07T09:54:40;22.60;96.90
39601;DHT22;25297;44.758;11.310;2023-05-07T09:57:10;22.70;96.40
39601;DHT22;25297;44.758;11.310;2023-05-07T09:59:37;22.70;95.70
39601;DHT22;25297;44.758;11.310;2023-05-07T10:02:04;22.70;95.50
39601;DHT22;25297;44.758;11.310;2023-05-07T10:04:31;22.70;95.30
39601;DHT22;25297;44.758;11.310;2023-05-07T10:06:58;22.80;95.30
39601;DHT22;25297;44.758;11.310;2023-05-07T10:09:25;22.80;95.10
39601;DHT22;25297;44.758;11.310;2023-05-07T10:11:52;22.80;94.10
39601;DHT22;25297;44.758;11.310;2023-05-07T10:14:20;22.90;93.50
39601;DHT22;25297;44.758;11.310;2023-05-07T10:16:46;22.90;93.50
39601;DHT22;25297;44.758;11.310;2023-05-07T10:19:13;23.00;93.30
39601;DHT22;25297;44.758;11.310;2023-05-07T10:21:51;23.00;93.30
39601;DHT22;25297;44.758;11.310;2023-05-07T10:24:32;23.10;92.70
39601;DHT22;25297;44.758;11.310;2023-05-07T10:27:01;23.10;92.90
39601;DHT22;25297;44.758;11.310;2023-05-07T10:29:37;23.10;93.20
39601;DHT22;25297;44.758;11.310;2023-05-07T10:34:54;23.20;91.30
39601;DHT22;25297;44.758;11.310;2023-05-07T10:37:21;23.20;91.30
39601;DHT22;25297;44.758;11.310;2023-05-07T10:39:46;23.20;90.60
39601;DHT22;25297;44.758;11.310;2023-05-07T10:42:14;23.30;90.90
39601;DHT22;25297;44.758;11.310;2023-05-07T10:44:40;23.30;90.60
39601;DHT22;25297;44.758;11.310;2023-05-07T10:47:10;23.40;90.80
39601;DHT22;25297;44.758;11.310;2023-05-07T10:52:31;23.40;91.00
39601;DHT22;25297;44.758;11.310;2023-05-07T10:57:42;23.60;91.20
39601;DHT22;25297;44.758;11.310;2023-05-07T11:05:29;23.70;89.60
39601;DHT22;25297;44.758;11.310;2023-05-07T11:07:58;23.70;90.30
39601;DHT22;25297;44.758;11.310;2023-05-07T11:13:12;23.70;90.70
39601;DHT22;25297;44.758;11.310;2023-05-07T11:15:46;23.70;90.10
39601;DHT22;25297;44.758;11.310;2023-05-07T11:18:16;23.70;87.60
39601;DHT22;25297;44.758;11.310;2023-05-07T11:26:09;23.80;89.00
39601;DHT22;25297;44.758;11.310;2023-05-07T11:28:42;23.80;86.40
39601;DHT22;25297;44.758;11.310;2023-05-07T11:31:08;23.80;85.20
39601;DHT22;25297;44.758;11.310;2023-05-07T11:33:35;23.90;85.50
39601;DHT22;25297;44.758;11.310;2023-05-07T11:36:03;23.90;85.50
39601;DHT22;25297;44.758;11.310;2023-05-07T11:38:30;23.90;86.50
39601;DHT22;25297;44.758;11.310;2023-05-07T11:40:57;24.00;86.00
39601;DHT22;25297;44.758;11.310;2023-05-07T11:43:26;24.00;85.60
39601;DHT22;25297;44.758;11.310;2023-05-07T11:45:52;24.00;86.40
39601;DHT22;25297;44.758;11.310;2023-05-07T11:48:18;24.00;86.00
39601;DHT22;25297;44.758;11.310;2023-05-07T11:51:03;24.00;85.00
39601;DHT22;25297;44.758;11.310;2023-05-07T11:53:41;24.10;86.20
39601;DHT22;25297;44.758;11.310;2023-05-07T11:56:11;24.10;86.90
39601;DHT22;25297;44.758;11.310;2023-05-07T11:58:37;24.20;86.70
39601;DHT22;25297;44.758;11.310;2023-05-07T12:01:03;24.20;85.70
39601;DHT22;25297;44.758;11.310;2023-05-07T12:03:29;24.30;84.60
39601;DHT22;25297;44.758;11.310;2023-05-07T12:05:55;24.30;83.90
39601;DHT22;25297;44.758;11.310;2023-05-07T12:08:21;24.30;83.70
39601;DHT22;25297;44.758;11.310;2023-05-07T12:10:49;24.30;85.40
39601;DHT22;25297;44.758;11.310;2023-05-07T12:13:19;24.30;84.70
39601;DHT22;25297;44.758;11.310;2023-05-07T12:15:46;24.40;83.20
39601;DHT22;25297;44.758;11.310;2023-05-07T12:18:12;24.40;83.00
39601;DHT22;25297;44.758;11.310;2023-05-07T12:20:39;24.40;82.70
39601;DHT22;25297;44.758;11.310;2023-05-07T12:23:05;24.40;82.50
39601;DHT22;25297;44.758;11.310;2023-05-07T12:25:41;24.40;83.00
39601;DHT22;25297;44.758;11.310;2023-05-07T12:28:13;24.50;84.20
39601;DHT22;25297;44.758;11.310;2023-05-07T12:30:43;24.50;83.30
39601;DHT22;25297;44.758;11.310;2023-05-07T12:33:09;24.50;83.00
39601;DHT22;25297;44.758;11.310;2023-05-07T12:35:40;24.50;83.20
39601;DHT22;25297;44.758;11.310;2023-05-07T12:38:13;24.60;83.90
39601;DHT22;25297;44.758;11.310;2023-05-07T12:40:40;24.60;83.10
39601;DHT22;25297;44.758;11.310;2023-05-07T12:43:06;24.60;82.10
39601;DHT22;25297;44.758;11.310;2023-05-07T12:45:37;24.60;82.60
39601;DHT22;25297;44.758;11.310;2023-05-07T12:48:04;24.70;81.50
39601;DHT22;25297;44.758;11.310;2023-05-07T12:50:33;24.70;81.70
39601;DHT22;25297;44.758;11.310;2023-05-07T12:52:59;24.70;81.20
39601;DHT22;25297;44.758;11.310;2023-05-07T12:55:25;24.70;80.50
39601;DHT22;25297;44.758;11.310;2023-05-07T12:57:51;24.70;82.10
39601;DHT22;25297;44.758;11.310;2023-05-07T13:00:32;24.70;82.00
39601;DHT22;25297;44.758;11.310;2023-05-07T13:02:58;24.70;83.10
39601;DHT22;25297;44.758;11.310;2023-05-07T13:05:24;24.80;83.00
39601;DHT22;25297;44.758;11.310;2023-05-07T13:07:56;24.80;82.10
39601;DHT22;25297;44.758;11.310;2023-05-07T13:10:23;24.90;80.60
39601;DHT22;25297;44.758;11.310;2023-05-07T13:12:49;24.90;79.80
39601;DHT22;25297;44.758;11.310;2023-05-07T13:15:16;24.90;80.90
39601;DHT22;25297;44.758;11.310;2023-05-07T13:17:41;24.90;82.60
39601;DHT22;25297;44.758;11.310;2023-05-07T13:20:09;24.90;82.10
39601;DHT22;25297;44.758;11.310;2023-05-07T13:22:35;24.90;82.10
39601;DHT22;25297;44.758;11.310;2023-05-07T13:25:01;24.90;82.10
39601;DHT22;25297;44.758;11.310;2023-05-07T13:27:27;24.90;82.00
39601;DHT22;25297;44.758;11.310;2023-05-07T13:29:52;24.90;81.40
39601;DHT22;25297;44.758;11.310;2023-05-07T13:32:18;24.90;82.90
39601;DHT22;25297;44.758;11.310;2023-05-07T13:34:44;25.00;83.00
39601;DHT22;25297;44.758;11.310;2023-05-07T13:37:09;25.00;82.90
39601;DHT22;25297;44.758;11.310;2023-05-07T13:39:36;25.00;83.30
39601;DHT22;25297;44.758;11.310;2023-05-07T13:42:02;25.00;82.40
39601;DHT22;25297;44.758;11.310;2023-05-07T13:44:27;24.90;82.10
39601;DHT22;25297;44.758;11.310;2023-05-07T13:46:53;24.90;82.80
39601;DHT22;25297;44.758;11.310;2023-05-07T13:49:19;24.90;83.00
39601;DHT22;25297;44.758;11.310;2023-05-07T13:51:44;24.90;85.10
39601;DHT22;25297;44.758;11.310;2023-05-07T13:54:10;24.90;84.60
39601;DHT22;25297;44.758;11.310;2023-05-07T13:56:36;25.00;83.00
39601;DHT22;25297;44.758;11.310;2023-05-07T13:59:02;25.00;82.60
39601;DHT22;25297;44.758;11.310;2023-05-07T14:01:27;25.00;82.60
39601;DHT22;25297;44.758;11.310;2023-05-07T14:03:53;25.10;82.70
39601;DHT22;25297;44.758;11.310;2023-05-07T14:06:19;25.10;83.70
39601;DHT22;25297;44.758;11.310;2023-05-07T14:08:45;25.10;84.40
39601;DHT22;25297;44.758;11.310;2023-05-07T14:11:10;25.10;83.90
39601;DHT22;25297;44.758;11.310;2023-05-07T14:13:36;25.10;83.90
39601;DHT22;25297;44.758;11.310;2023-05-07T14:16:02;25.20;83.00
39601;DHT22;25297;44.758;11.310;2023-05-07T14:18:28;25.20;81.20
39601;DHT22;25297;44.758;11.310;2023-05-07T14:20:54;25.20;80.50
39601;DHT22;25297;44.758;11.310;2023-05-07T14:23:20;25.30;80.80
39601;DHT22;25297;44.758;11.310;2023-05-07T14:25:50;25.30;79.10
39601;DHT22;25297;44.758;11.310;2023-05-07T14:28:16;25.30;79.40
39601;DHT22;25297;44.758;11.310;2023-05-07T14:30:42;25.30;80.20
39601;DHT22;25297;44.758;11.310;2023-05-07T14:33:07;25.30;80.70
39601;DHT22;25297;44.758;11.310;2023-05-07T14:35:33;25.40;80.60
39601;DHT22;25297;44.758;11.310;2023-05-07T14:37:58;25.30;80.90
39601;DHT22;25297;44.758;11.310;2023-05-07T14:40:24;25.30;81.70
39601;DHT22;25297;44.758;11.310;2023-05-07T14:42:50;25.40;82.70
39601;DHT22;25297;44.758;11.310;2023-05-07T14:45:15;25.40;82.50
39601;DHT22;25297;44.758;11.310;2023-05-07T14:47:41;25.40;82.40
39601;DHT22;25297;44.758;11.310;2023-05-07T14:50:07;25.40;82.90
39601;DHT22;25297;44.758;11.310;2023-05-07T14:52:32;25.40;82.40
39601;DHT22;25297;44.758;11.310;2023-05-07T14:54:58;25.40;81.80
39601;DHT22;25297;44.758;11.310;2023-05-07T14:57:24;25.40;81.90
39601;DHT22;25297;44.758;11.310;2023-05-07T14:59:50;25.40;81.00
39601;DHT22;25297;44.758;11.310;2023-05-07T15:02:16;25.40;80.60
39601;DHT22;25297;44.758;11.310;2023-05-07T15:04:42;25.40;81.00
39601;DHT22;25297;44.758;11.310;2023-05-07T15:07:15;25.40;82.00
39601;DHT22;25297;44.758;11.310;2023-05-07T15:09:44;25.40;81.80
39601;DHT22;25297;44.758;11.310;2023-05-07T15:12:10;25.40;81.10
39601;DHT22;25297;44.758;11.310;2023-05-07T15:14:37;25.40;80.90
39601;DHT22;25297;44.758;11.310;2023-05-07T15:17:03;25.40;80.90
39601;DHT22;25297;44.758;11.310;2023-05-07T15:19:29;25.40;81.20
39601;DHT22;25297;44.758;11.310;2023-05-07T15:21:59;25.40;82.10
39601;DHT22;25297;44.758;11.310;2023-05-07T15:24:30;25.40;81.30
39601;DHT22;25297;44.758;11.310;2023-05-07T15:26:56;25.40;81.00
39601;DHT22;25297;44.758;11.310;2023-05-07T15:29:23;25.40;80.70
39601;DHT22;25297;44.758;11.310;2023-05-07T15:31:50;25.40;80.60